Venus Seven — H9RN — position and weather

sailwx.info

Track history (hours):
 
Tides and Currents Weather Stations Pressure Air Temp Water Temp Dewpoint Dewpoint Depression Visibility Wind Speed Wind Dir Waves Ship Positions

Venus Seven

Last reported at 2016-Jun-28 10:33 UTC. Time now 2016-Jun-28 15:11 UTC.
Position N 22°44' E 120°09'.

Length 93 m; draft 4.4 m.

Type: Cargo ship. MMSI: 353405000.

Date/timePositionNaut miles runAvg speedWind from/ knotsBaromVisibWave heightAir tempDewpointWater temp
2016-Jun-28 10:33N 22°44' E 120°09'1211.7
2016-Jun-28 09:33N 22°36' E 120°17'0 0.0
2016-Jun-28 06:24N 22°36' E 120°17'0 0.0
2016-Jun-28 04:18N 22°36' E 120°17'0 0.0
2016-Jun-28 03:30N 22°36' E 120°17'0 0.0
2016-Jun-28 02:30N 22°36' E 120°17'0 0.0
2016-Jun-28 01:18N 22°36' E 120°17'3 3.5
2016-Jun-28 00:33N 22°37' E 120°15'4 3.5
2016-Jun-27 23:33N 22°38' E 120°12'1110.9
2016-Jun-27 22:33N 22°47' E 120°05'  
2016-Jun-23 12:29N 33°57' E 134°54'1212.6
2016-Jun-23 11:33N 34°08' E 134°57'1312.4
2016-Jun-23 10:32N 34°21' E 134°60'1313.7
2016-Jun-23 09:33N 34°30' E 135°12'1110.7
2016-Jun-23 08:33N 34°37' E 135°21'3 2.3
2016-Jun-23 07:19N 34°38' E 135°25'0 0.0
2016-Jun-23 05:31N 34°38' E 135°25'0 0.0
2016-Jun-23 04:31N 34°38' E 135°25'0 0.0
2016-Jun-23 03:31N 34°38' E 135°25'0 0.0
2016-Jun-23 02:25N 34°38' E 135°25'0 0.0
2016-Jun-23 01:25N 34°38' E 135°25'0 0.0
2016-Jun-23 00:31N 34°38' E 135°25'0 0.0
2016-Jun-22 23:31N 34°38' E 135°25'0 0.0
2016-Jun-22 22:25N 34°38' E 135°25'0 0.0
2016-Jun-22 21:31N 34°38' E 135°25'0 0.0
2016-Jun-22 20:31N 34°38' E 135°25'0 0.0
2016-Jun-22 19:31N 34°38' E 135°25'0 0.0
2016-Jun-22 18:19N 34°38' E 135°25'0 0.0
2016-Jun-22 17:31N 34°38' E 135°25'0 0.0
2016-Jun-22 16:31N 34°38' E 135°25'0 0.0
2016-Jun-22 15:31N 34°38' E 135°25'0 0.0
2016-Jun-22 14:18N 34°38' E 135°25'0 0.0
2016-Jun-22 13:30N 34°38' E 135°25'0 0.0
2016-Jun-22 12:30N 34°38' E 135°25'0 0.0
2016-Jun-22 11:30N 34°38' E 135°25'0 0.0
2016-Jun-22 10:18N 34°38' E 135°25'0 0.0
2016-Jun-22 09:30N 34°38' E 135°25'0 0.0
2016-Jun-22 08:30N 34°38' E 135°25'0 0.0
2016-Jun-22 07:30N 34°38' E 135°25'0 0.0
2016-Jun-22 06:30N 34°38' E 135°25'0 0.0
2016-Jun-22 05:30N 34°38' E 135°25'0 0.0
2016-Jun-22 04:30N 34°38' E 135°25'0 0.0
2016-Jun-22 03:30N 34°38' E 135°25'0 0.0
2016-Jun-22 02:30N 34°38' E 135°25'0 0.0
2016-Jun-22 01:30N 34°38' E 135°25'0 0.0
2016-Jun-22 00:30N 34°38' E 135°25'0 0.0
2016-Jun-21 23:30N 34°38' E 135°25'0 0.0
2016-Jun-21 22:30N 34°38' E 135°25'0 0.0
2016-Jun-21 21:24N 34°38' E 135°25'0 0.0
2016-Jun-21 20:30N 34°38' E 135°25'0 0.0
2016-Jun-21 19:30N 34°38' E 135°25'0 0.0
2016-Jun-21 18:30N 34°38' E 135°25'0 0.0
2016-Jun-21 17:30N 34°38' E 135°25'0 0.0
2016-Jun-21 16:30N 34°38' E 135°25'0 0.0
2016-Jun-21 15:28N 34°38' E 135°25'0 0.0
2016-Jun-21 14:28N 34°38' E 135°25'0 0.0
2016-Jun-21 13:28N 34°38' E 135°25'0 0.0
2016-Jun-21 12:22N 34°38' E 135°25'0 0.0
2016-Jun-21 11:16N 34°38' E 135°25'0 0.0
2016-Jun-21 10:28N 34°38' E 135°25'0 0.0
2016-Jun-21 09:28N 34°38' E 135°25'0 0.0
2016-Jun-21 08:28N 34°38' E 135°25'0 0.0
2016-Jun-21 07:28N 34°38' E 135°25'0 0.0
2016-Jun-21 06:28N 34°38' E 135°25'0 0.0
2016-Jun-21 04:22N 34°38' E 135°25'0 0.0
2016-Jun-21 03:28N 34°38' E 135°25'0 0.0
2016-Jun-21 02:28N 34°38' E 135°25'0 0.0
2016-Jun-21 01:28N 34°38' E 135°25'0 0.0
2016-Jun-21 00:28N 34°38' E 135°25'0 0.0
2016-Jun-20 23:28N 34°38' E 135°25'0 0.0
2016-Jun-20 22:28N 34°38' E 135°25'3 3.1
2016-Jun-20 21:33N 34°37' E 135°22'4 3.6
2016-Jun-20 20:33N 34°34' E 135°18'1211.9
2016-Jun-20 19:33N 34°35' E 135°04'1212.0
2016-Jun-20 18:33N 34°33' E 134°50'  
Track history (hours):
 
Tides and Currents Weather Stations Pressure Air Temp Water Temp Dewpoint Dewpoint Depression Visibility Wind Speed Wind Dir Waves Ship Positions

Venus Seven

Last reported at 2016-Jun-28 10:33 UTC. Time now 2016-Jun-28 15:11 UTC.
Position N 22°44' E 120°09'.

Length 93 m; draft 4.4 m.

Type: Cargo ship. MMSI: 353405000.

Date/timePositionNaut miles runAvg speedWind from/ knotsBaromVisibWave heightAir tempDewpointWater temp
2016-Jun-28 10:33N 22°44' E 120°09'1211.7
2016-Jun-28 09:33N 22°36' E 120°17'0 0.0
2016-Jun-28 06:24N 22°36' E 120°17'0 0.0
2016-Jun-28 04:18N 22°36' E 120°17'0 0.0
2016-Jun-28 03:30N 22°36' E 120°17'0 0.0
2016-Jun-28 02:30N 22°36' E 120°17'0 0.0
2016-Jun-28 01:18N 22°36' E 120°17'3 3.5
2016-Jun-28 00:33N 22°37' E 120°15'4 3.5
2016-Jun-27 23:33N 22°38' E 120°12'1110.9
2016-Jun-27 22:33N 22°47' E 120°05'  
2016-Jun-23 12:29N 33°57' E 134°54'1212.6
2016-Jun-23 11:33N 34°08' E 134°57'1312.4
2016-Jun-23 10:32N 34°21' E 134°60'1313.7
2016-Jun-23 09:33N 34°30' E 135°12'1110.7
2016-Jun-23 08:33N 34°37' E 135°21'3 2.3
2016-Jun-23 07:19N 34°38' E 135°25'0 0.0
2016-Jun-23 05:31N 34°38' E 135°25'0 0.0
2016-Jun-23 04:31N 34°38' E 135°25'0 0.0
2016-Jun-23 03:31N 34°38' E 135°25'0 0.0
2016-Jun-23 02:25N 34°38' E 135°25'0 0.0
2016-Jun-23 01:25N 34°38' E 135°25'0 0.0
2016-Jun-23 00:31N 34°38' E 135°25'0 0.0
2016-Jun-22 23:31N 34°38' E 135°25'0 0.0
2016-Jun-22 22:25N 34°38' E 135°25'0 0.0
2016-Jun-22 21:31N 34°38' E 135°25'0 0.0
2016-Jun-22 20:31N 34°38' E 135°25'0 0.0
2016-Jun-22 19:31N 34°38' E 135°25'0 0.0
2016-Jun-22 18:19N 34°38' E 135°25'0 0.0
2016-Jun-22 17:31N 34°38' E 135°25'0 0.0
2016-Jun-22 16:31N 34°38' E 135°25'0 0.0
2016-Jun-22 15:31N 34°38' E 135°25'0 0.0
2016-Jun-22 14:18N 34°38' E 135°25'0 0.0
2016-Jun-22 13:30N 34°38' E 135°25'0 0.0
2016-Jun-22 12:30N 34°38' E 135°25'0 0.0
2016-Jun-22 11:30N 34°38' E 135°25'0 0.0
2016-Jun-22 10:18N 34°38' E 135°25'0 0.0
2016-Jun-22 09:30N 34°38' E 135°25'0 0.0
2016-Jun-22 08:30N 34°38' E 135°25'0 0.0
2016-Jun-22 07:30N 34°38' E 135°25'0 0.0
2016-Jun-22 06:30N 34°38' E 135°25'0 0.0
2016-Jun-22 05:30N 34°38' E 135°25'0 0.0
2016-Jun-22 04:30N 34°38' E 135°25'0 0.0
2016-Jun-22 03:30N 34°38' E 135°25'0 0.0
2016-Jun-22 02:30N 34°38' E 135°25'0 0.0
2016-Jun-22 01:30N 34°38' E 135°25'0 0.0
2016-Jun-22 00:30N 34°38' E 135°25'0 0.0
2016-Jun-21 23:30N 34°38' E 135°25'0 0.0
2016-Jun-21 22:30N 34°38' E 135°25'0 0.0
2016-Jun-21 21:24N 34°38' E 135°25'0 0.0
2016-Jun-21 20:30N 34°38' E 135°25'0 0.0
2016-Jun-21 19:30N 34°38' E 135°25'0 0.0
2016-Jun-21 18:30N 34°38' E 135°25'0 0.0
2016-Jun-21 17:30N 34°38' E 135°25'0 0.0
2016-Jun-21 16:30N 34°38' E 135°25'0 0.0
2016-Jun-21 15:28N 34°38' E 135°25'0 0.0
2016-Jun-21 14:28N 34°38' E 135°25'0 0.0
2016-Jun-21 13:28N 34°38' E 135°25'0 0.0
2016-Jun-21 12:22N 34°38' E 135°25'0 0.0
2016-Jun-21 11:16N 34°38' E 135°25'0 0.0
2016-Jun-21 10:28N 34°38' E 135°25'0 0.0
2016-Jun-21 09:28N 34°38' E 135°25'0 0.0
2016-Jun-21 08:28N 34°38' E 135°25'0 0.0
2016-Jun-21 07:28N 34°38' E 135°25'0 0.0
2016-Jun-21 06:28N 34°38' E 135°25'0 0.0
2016-Jun-21 04:22N 34°38' E 135°25'0 0.0
2016-Jun-21 03:28N 34°38' E 135°25'0 0.0
2016-Jun-21 02:28N 34°38' E 135°25'0 0.0
2016-Jun-21 01:28N 34°38' E 135°25'0 0.0
2016-Jun-21 00:28N 34°38' E 135°25'0 0.0
2016-Jun-20 23:28N 34°38' E 135°25'0 0.0
2016-Jun-20 22:28N 34°38' E 135°25'3 3.1
2016-Jun-20 21:33N 34°37' E 135°22'4 3.6
2016-Jun-20 20:33N 34°34' E 135°18'1211.9
2016-Jun-20 19:33N 34°35' E 135°04'1212.0
2016-Jun-20 18:33N 34°33' E 134°50'  

Dump ship's entire track history